MTS Valour — MPVV8 — position and weather

sailwx.info

Track history (hours):
 
Tides and Currents Weather Stations Pressure Air Temp Water Temp Dewpoint Dewpoint Depression Visibility Wind Speed Wind Dir Waves Ship Positions

MTS Valour

Last reported at 2016-Jan-20 03:33 UTC. Time now 2016-Feb-14 14:36 UTC.
Position N 50°22' W 003°26'.
Warning: this ship's position is 25 days out of date.

Length 24 m; draft 2.5 m.

Type: Tug. MMSI: 235040596.

Date/timePositionNaut miles runAvg speedWind from/ knotsBaromVisibWave heightAir tempDewpointWater temp
2016-Jan-20 03:33N 50°22' W 003°26'5 5.2
2016-Jan-20 02:33N 50°27' W 003°25'5 5.1
2016-Jan-20 01:33N 50°27' W 003°17'8 8.2
2016-Jan-20 00:33N 50°26' W 003°04'119 6.9
2016-Jan-19 07:18N 50°33' E 000°02'11 6.5
2016-Jan-19 05:33N 50°35' E 000°20'7 6.8
2016-Jan-19 04:33N 50°38' E 000°30'7 7.1
2016-Jan-19 03:33N 50°40' E 000°40'8 7.6
2016-Jan-19 02:32N 50°45' E 000°50'19 8.9
2016-Jan-19 00:22N 50°57' E 001°14'8 9.2
2016-Jan-18 23:33N 51°01' E 001°23'8 8.3
2016-Jan-18 22:33N 51°07' E 001°33'7 6.8
2016-Jan-18 21:33N 51°11' E 001°41'6 6.2
2016-Jan-18 20:33N 51°16' E 001°48'6 6.1
2016-Jan-18 19:34N 51°21' E 001°53'6 6.4
2016-Jan-18 18:34N 51°26' E 001°60'7 7.2
2016-Jan-18 17:33N 51°32' E 002°07'62 7.5
2016-Jan-18 09:22N 51°51' E 003°41'6 6.9
2016-Jan-18 08:33N 51°51' E 003°50'5 5.3
2016-Jan-18 07:33N 51°51' E 003°59'2 2.4
2016-Jan-18 06:34N 51°50' E 004°02'1 0.6
2016-Jan-18 05:31N 51°49' E 004°03'0 0.0
2016-Jan-18 04:31N 51°49' E 004°03'0 0.0
2016-Jan-18 03:34N 51°49' E 004°03'0 0.0
2016-Jan-18 02:31N 51°49' E 004°03'0 0.0
2016-Jan-18 01:33N 51°49' E 004°03'0 0.0
2016-Jan-18 00:31N 51°49' E 004°03'0 0.0
2016-Jan-17 23:34N 51°49' E 004°03'0 0.0
2016-Jan-17 22:28N 51°49' E 004°03'0 0.0
2016-Jan-17 21:31N 51°49' E 004°03'0 0.0
2016-Jan-17 20:31N 51°49' E 004°03'0 0.0
2016-Jan-17 19:34N 51°49' E 004°03'0 0.0
2016-Jan-17 18:28N 51°49' E 004°03'0 0.0
2016-Jan-17 17:33N 51°49' E 004°03'0 0.0
2016-Jan-17 16:31N 51°49' E 004°03'0 0.0
2016-Jan-17 15:31N 51°49' E 004°03'0 0.0
2016-Jan-17 14:34N 51°49' E 004°03'0 0.0
2016-Jan-17 13:34N 51°49' E 004°03'0 0.0
2016-Jan-17 12:31N 51°49' E 004°03'0 0.0
2016-Jan-17 11:22N 51°49' E 004°03'0 0.0
2016-Jan-17 10:31N 51°49' E 004°03'0 0.0
2016-Jan-17 09:33N 51°49' E 004°03'0 0.0
2016-Jan-17 08:24N 51°49' E 004°03'0 0.0
2016-Jan-17 07:31N 51°49' E 004°03'0 0.0
2016-Jan-17 06:28N 51°49' E 004°03'0 0.0
2016-Jan-17 05:31N 51°49' E 004°03'0 0.0
2016-Jan-17 04:31N 51°49' E 004°03'0 0.0
2016-Jan-17 03:34N 51°49' E 004°03'0 0.0
2016-Jan-17 02:31N 51°49' E 004°03'0 0.0
2016-Jan-17 01:31N 51°49' E 004°03'0 0.0
2016-Jan-17 00:31N 51°49' E 004°03'0 0.0
2016-Jan-16 23:31N 51°49' E 004°03'0 0.0
2016-Jan-16 22:31N 51°49' E 004°03'0 0.0
2016-Jan-16 21:31N 51°49' E 004°03'0 0.0
2016-Jan-16 20:21N 51°49' E 004°03'0 0.0
2016-Jan-16 18:19N 51°49' E 004°03'0 0.0
2016-Jan-16 17:13N 51°49' E 004°03'0 0.0
2016-Jan-16 16:10N 51°49' E 004°03'0 0.0
2016-Jan-16 14:27N 51°49' E 004°03'0 0.0
2016-Jan-16 13:33N 51°49' E 004°03'0 0.0
2016-Jan-16 12:33N 51°49' E 004°03'0 0.0
2016-Jan-16 11:33N 51°49' E 004°03'0 0.0
2016-Jan-16 10:33N 51°49' E 004°03'0 0.0
2016-Jan-16 09:33N 51°49' E 004°03'0 0.0
2016-Jan-16 08:33N 51°49' E 004°03'0 0.0
2016-Jan-16 07:33N 51°49' E 004°03'0 0.0
2016-Jan-16 06:33N 51°49' E 004°03'0 0.0
2016-Jan-16 05:33N 51°49' E 004°03'0 0.0
2016-Jan-16 04:33N 51°49' E 004°03'0 0.0
2016-Jan-16 03:33N 51°49' E 004°03'0 0.0
2016-Jan-16 02:33N 51°49' E 004°03'0 0.0
2016-Jan-16 01:33N 51°49' E 004°03'0 0.0
2016-Jan-16 00:33N 51°49' E 004°03'0 0.0
2016-Jan-15 23:33N 51°49' E 004°03'0 0.0
2016-Jan-15 22:33N 51°49' E 004°03'0 0.0
2016-Jan-15 21:33N 51°49' E 004°03'0 0.0
2016-Jan-15 20:33N 51°49' E 004°03'0 0.0
2016-Jan-15 19:33N 51°49' E 004°03'0 0.0
2016-Jan-15 18:33N 51°49' E 004°03'0 0.0
2016-Jan-15 17:33N 51°49' E 004°03'0 0.0
2016-Jan-15 16:33N 51°49' E 004°03'0 0.0
2016-Jan-15 15:33N 51°49' E 004°03'0 0.0
2016-Jan-15 14:33N 51°49' E 004°03'145 4.5
2016-Jan-14 06:10N 53°49' E 006°18'19 7.4
2016-Jan-14 03:33N 53°53' E 006°49'6 6.2
2016-Jan-14 02:34N 53°55' E 006°59'6 5.6
2016-Jan-14 01:33N 53°56' E 007°09'5 5.0
2016-Jan-14 00:33N 53°57' E 007°17'5 4.5
2016-Jan-13 23:32N 53°58' E 007°25'4 4.1
2016-Jan-13 22:33N 53°59' E 007°31'4 4.1
2016-Jan-13 21:33N 53°59' E 007°38'5 4.7
2016-Jan-13 20:33N 53°55' E 007°43'6 5.6
2016-Jan-13 19:33N 53°53' E 007°52'7 7.4
2016-Jan-13 18:33N 53°50' E 008°04'9 9.1
2016-Jan-13 17:33N 53°44' E 008°15'9 9.3
2016-Jan-13 16:33N 53°38' E 008°27'6 6.3
2016-Jan-13 15:33N 53°33' E 008°34'0 0.2
2016-Jan-13 14:31N 53°33' E 008°34'0 0.0
2016-Jan-13 13:31N 53°33' E 008°34'0 0.0
2016-Jan-13 12:31N 53°33' E 008°34'0 0.0
2016-Jan-13 11:31N 53°33' E 008°34'0 0.0
2016-Jan-13 10:31N 53°33' E 008°34'0 0.0
2016-Jan-13 09:31N 53°33' E 008°34'0 0.0
2016-Jan-13 08:31N 53°33' E 008°34'0 0.0
2016-Jan-13 07:31N 53°33' E 008°34'0 0.0
2016-Jan-13 06:31N 53°33' E 008°34'0 0.0
2016-Jan-13 05:28N 53°33' E 008°34'0 0.0
2016-Jan-13 04:31N 53°33' E 008°34'0 0.0
2016-Jan-13 03:31N 53°33' E 008°34'0 0.0
2016-Jan-13 02:31N 53°33' E 008°34'0 0.0
2016-Jan-13 01:31N 53°33' E 008°34'0 0.0
2016-Jan-13 00:31N 53°33' E 008°34'0 0.0
2016-Jan-12 23:28N 53°33' E 008°34'0 0.0
2016-Jan-12 22:31N 53°33' E 008°34'0 0.0
2016-Jan-12 21:31N 53°33' E 008°34'0 0.0
2016-Jan-12 20:31N 53°33' E 008°34'0 0.0
2016-Jan-12 19:31N 53°33' E 008°34'0 0.0
2016-Jan-12 18:31N 53°33' E 008°34'0 0.0
2016-Jan-12 17:31N 53°33' E 008°34'0 0.0
2016-Jan-12 16:31N 53°33' E 008°34'0 0.0
2016-Jan-12 15:31N 53°33' E 008°34'0 0.0
2016-Jan-12 14:31N 53°33' E 008°34'0 0.0
2016-Jan-12 13:31N 53°33' E 008°34'0 0.0
2016-Jan-12 12:31N 53°33' E 008°34'0 0.0
2016-Jan-12 11:31N 53°33' E 008°34'0 0.0
2016-Jan-12 10:18N 53°33' E 008°34'0 0.0
2016-Jan-12 09:31N 53°33' E 008°34'0 0.0
2016-Jan-12 08:31N 53°33' E 008°34'0 0.0
2016-Jan-12 07:31N 53°33' E 008°34'0 0.0
2016-Jan-12 06:28N 53°33' E 008°34'0 0.0
2016-Jan-12 05:31N 53°33' E 008°34'0 0.0
2016-Jan-12 04:31N 53°33' E 008°34'0 0.0
2016-Jan-12 03:31N 53°33' E 008°34'0 0.0
2016-Jan-12 02:31N 53°33' E 008°34'0 0.0
2016-Jan-12 01:31N 53°33' E 008°34'0 0.0
2016-Jan-12 00:31N 53°33' E 008°34'0 0.0
2016-Jan-11 23:31N 53°33' E 008°34'0 0.0
2016-Jan-11 22:31N 53°33' E 008°34'0 0.0
2016-Jan-11 21:31N 53°33' E 008°34'0 0.0
2016-Jan-11 20:28N 53°33' E 008°34'0 0.0
2016-Jan-11 19:28N 53°33' E 008°34'0 0.0
2016-Jan-11 18:31N 53°33' E 008°34'0 0.0
2016-Jan-11 17:31N 53°33' E 008°34'0 0.0
2016-Jan-11 16:31N 53°33' E 008°34'0 0.0
2016-Jan-11 15:31N 53°33' E 008°34'0 0.0
2016-Jan-11 14:31N 53°33' E 008°34'0 0.0
2016-Jan-11 13:31N 53°33' E 008°34'0 0.0
2016-Jan-11 12:31N 53°33' E 008°34'0 0.0
2016-Jan-11 11:31N 53°33' E 008°34'0 0.0
2016-Jan-11 10:31N 53°33' E 008°34'0 0.0
2016-Jan-11 09:31N 53°33' E 008°34'0 0.0
2016-Jan-11 08:32N 53°33' E 008°34'0 0.0
2016-Jan-11 07:32N 53°33' E 008°34'0 0.0
2016-Jan-11 06:32N 53°33' E 008°34'0 0.0
2016-Jan-11 05:32N 53°33' E 008°34'0 0.0
2016-Jan-11 04:32N 53°33' E 008°34'0 0.0
2016-Jan-11 03:32N 53°33' E 008°34'0 0.0
2016-Jan-11 02:32N 53°33' E 008°34'0 0.0
2016-Jan-11 01:32N 53°33' E 008°34'0 0.0
2016-Jan-11 00:32N 53°33' E 008°34'0 0.0
2016-Jan-10 23:32N 53°33' E 008°34'0 0.0
2016-Jan-10 22:32N 53°33' E 008°34'0 0.0
2016-Jan-10 21:32N 53°33' E 008°34'0 0.0
2016-Jan-10 20:32N 53°33' E 008°34'0 0.0
2016-Jan-10 19:32N 53°33' E 008°34'0 0.0
2016-Jan-10 18:32N 53°33' E 008°34'0 0.0
2016-Jan-10 17:32N 53°33' E 008°34'0 0.0
2016-Jan-10 16:32N 53°33' E 008°34'0 0.0
2016-Jan-10 15:32N 53°33' E 008°34'0 0.0
2016-Jan-10 14:32N 53°33' E 008°34'0 0.0
2016-Jan-10 13:32N 53°33' E 008°34'0 0.0
2016-Jan-10 12:32N 53°33' E 008°34'0 0.0
2016-Jan-10 11:32N 53°33' E 008°34'0 0.0
2016-Jan-10 10:32N 53°33' E 008°34'0 0.0
2016-Jan-10 09:32N 53°33' E 008°34'0 0.0
2016-Jan-10 08:32N 53°33' E 008°34'0 0.0
2016-Jan-10 07:32N 53°33' E 008°34'0 0.0
2016-Jan-10 06:32N 53°33' E 008°34'0 0.0
2016-Jan-10 05:32N 53°33' E 008°34'0 0.0
2016-Jan-10 04:32N 53°33' E 008°34'  
Track history (hours):
 
Tides and Currents Weather Stations Pressure Air Temp Water Temp Dewpoint Dewpoint Depression Visibility Wind Speed Wind Dir Waves Ship Positions

MTS Valour

Last reported at 2016-Jan-20 03:33 UTC. Time now 2016-Feb-14 14:36 UTC.
Position N 50°22' W 003°26'.
Warning: this ship's position is 25 days out of date.

Length 24 m; draft 2.5 m.

Type: Tug. MMSI: 235040596.

Date/timePositionNaut miles runAvg speedWind from/ knotsBaromVisibWave heightAir tempDewpointWater temp
2016-Jan-20 03:33N 50°22' W 003°26'5 5.2
2016-Jan-20 02:33N 50°27' W 003°25'5 5.1
2016-Jan-20 01:33N 50°27' W 003°17'8 8.2
2016-Jan-20 00:33N 50°26' W 003°04'119 6.9
2016-Jan-19 07:18N 50°33' E 000°02'11 6.5
2016-Jan-19 05:33N 50°35' E 000°20'7 6.8
2016-Jan-19 04:33N 50°38' E 000°30'7 7.1
2016-Jan-19 03:33N 50°40' E 000°40'8 7.6
2016-Jan-19 02:32N 50°45' E 000°50'19 8.9
2016-Jan-19 00:22N 50°57' E 001°14'8 9.2
2016-Jan-18 23:33N 51°01' E 001°23'8 8.3
2016-Jan-18 22:33N 51°07' E 001°33'7 6.8
2016-Jan-18 21:33N 51°11' E 001°41'6 6.2
2016-Jan-18 20:33N 51°16' E 001°48'6 6.1
2016-Jan-18 19:34N 51°21' E 001°53'6 6.4
2016-Jan-18 18:34N 51°26' E 001°60'7 7.2
2016-Jan-18 17:33N 51°32' E 002°07'62 7.5
2016-Jan-18 09:22N 51°51' E 003°41'6 6.9
2016-Jan-18 08:33N 51°51' E 003°50'5 5.3
2016-Jan-18 07:33N 51°51' E 003°59'2 2.4
2016-Jan-18 06:34N 51°50' E 004°02'1 0.6
2016-Jan-18 05:31N 51°49' E 004°03'0 0.0
2016-Jan-18 04:31N 51°49' E 004°03'0 0.0
2016-Jan-18 03:34N 51°49' E 004°03'0 0.0
2016-Jan-18 02:31N 51°49' E 004°03'0 0.0
2016-Jan-18 01:33N 51°49' E 004°03'0 0.0
2016-Jan-18 00:31N 51°49' E 004°03'0 0.0
2016-Jan-17 23:34N 51°49' E 004°03'0 0.0
2016-Jan-17 22:28N 51°49' E 004°03'0 0.0
2016-Jan-17 21:31N 51°49' E 004°03'0 0.0
2016-Jan-17 20:31N 51°49' E 004°03'0 0.0
2016-Jan-17 19:34N 51°49' E 004°03'0 0.0
2016-Jan-17 18:28N 51°49' E 004°03'0 0.0
2016-Jan-17 17:33N 51°49' E 004°03'0 0.0
2016-Jan-17 16:31N 51°49' E 004°03'0 0.0
2016-Jan-17 15:31N 51°49' E 004°03'0 0.0
2016-Jan-17 14:34N 51°49' E 004°03'0 0.0
2016-Jan-17 13:34N 51°49' E 004°03'0 0.0
2016-Jan-17 12:31N 51°49' E 004°03'0 0.0
2016-Jan-17 11:22N 51°49' E 004°03'0 0.0
2016-Jan-17 10:31N 51°49' E 004°03'0 0.0
2016-Jan-17 09:33N 51°49' E 004°03'0 0.0
2016-Jan-17 08:24N 51°49' E 004°03'0 0.0
2016-Jan-17 07:31N 51°49' E 004°03'0 0.0
2016-Jan-17 06:28N 51°49' E 004°03'0 0.0
2016-Jan-17 05:31N 51°49' E 004°03'0 0.0
2016-Jan-17 04:31N 51°49' E 004°03'0 0.0
2016-Jan-17 03:34N 51°49' E 004°03'0 0.0
2016-Jan-17 02:31N 51°49' E 004°03'0 0.0
2016-Jan-17 01:31N 51°49' E 004°03'0 0.0
2016-Jan-17 00:31N 51°49' E 004°03'0 0.0
2016-Jan-16 23:31N 51°49' E 004°03'0 0.0
2016-Jan-16 22:31N 51°49' E 004°03'0 0.0
2016-Jan-16 21:31N 51°49' E 004°03'0 0.0
2016-Jan-16 20:21N 51°49' E 004°03'0 0.0
2016-Jan-16 18:19N 51°49' E 004°03'0 0.0
2016-Jan-16 17:13N 51°49' E 004°03'0 0.0
2016-Jan-16 16:10N 51°49' E 004°03'0 0.0
2016-Jan-16 14:27N 51°49' E 004°03'0 0.0
2016-Jan-16 13:33N 51°49' E 004°03'0 0.0
2016-Jan-16 12:33N 51°49' E 004°03'0 0.0
2016-Jan-16 11:33N 51°49' E 004°03'0 0.0
2016-Jan-16 10:33N 51°49' E 004°03'0 0.0
2016-Jan-16 09:33N 51°49' E 004°03'0 0.0
2016-Jan-16 08:33N 51°49' E 004°03'0 0.0
2016-Jan-16 07:33N 51°49' E 004°03'0 0.0
2016-Jan-16 06:33N 51°49' E 004°03'0 0.0
2016-Jan-16 05:33N 51°49' E 004°03'0 0.0
2016-Jan-16 04:33N 51°49' E 004°03'0 0.0
2016-Jan-16 03:33N 51°49' E 004°03'0 0.0
2016-Jan-16 02:33N 51°49' E 004°03'0 0.0
2016-Jan-16 01:33N 51°49' E 004°03'0 0.0
2016-Jan-16 00:33N 51°49' E 004°03'0 0.0
2016-Jan-15 23:33N 51°49' E 004°03'0 0.0
2016-Jan-15 22:33N 51°49' E 004°03'0 0.0
2016-Jan-15 21:33N 51°49' E 004°03'0 0.0
2016-Jan-15 20:33N 51°49' E 004°03'0 0.0
2016-Jan-15 19:33N 51°49' E 004°03'0 0.0
2016-Jan-15 18:33N 51°49' E 004°03'0 0.0
2016-Jan-15 17:33N 51°49' E 004°03'0 0.0
2016-Jan-15 16:33N 51°49' E 004°03'0 0.0
2016-Jan-15 15:33N 51°49' E 004°03'0 0.0
2016-Jan-15 14:33N 51°49' E 004°03'145 4.5
2016-Jan-14 06:10N 53°49' E 006°18'19 7.4
2016-Jan-14 03:33N 53°53' E 006°49'6 6.2
2016-Jan-14 02:34N 53°55' E 006°59'6 5.6
2016-Jan-14 01:33N 53°56' E 007°09'5 5.0
2016-Jan-14 00:33N 53°57' E 007°17'5 4.5
2016-Jan-13 23:32N 53°58' E 007°25'4 4.1
2016-Jan-13 22:33N 53°59' E 007°31'4 4.1
2016-Jan-13 21:33N 53°59' E 007°38'5 4.7
2016-Jan-13 20:33N 53°55' E 007°43'6 5.6
2016-Jan-13 19:33N 53°53' E 007°52'7 7.4
2016-Jan-13 18:33N 53°50' E 008°04'9 9.1
2016-Jan-13 17:33N 53°44' E 008°15'9 9.3
2016-Jan-13 16:33N 53°38' E 008°27'6 6.3
2016-Jan-13 15:33N 53°33' E 008°34'0 0.2
2016-Jan-13 14:31N 53°33' E 008°34'0 0.0
2016-Jan-13 13:31N 53°33' E 008°34'0 0.0
2016-Jan-13 12:31N 53°33' E 008°34'0 0.0
2016-Jan-13 11:31N 53°33' E 008°34'0 0.0
2016-Jan-13 10:31N 53°33' E 008°34'0 0.0
2016-Jan-13 09:31N 53°33' E 008°34'0 0.0
2016-Jan-13 08:31N 53°33' E 008°34'0 0.0
2016-Jan-13 07:31N 53°33' E 008°34'0 0.0
2016-Jan-13 06:31N 53°33' E 008°34'0 0.0
2016-Jan-13 05:28N 53°33' E 008°34'0 0.0
2016-Jan-13 04:31N 53°33' E 008°34'0 0.0
2016-Jan-13 03:31N 53°33' E 008°34'0 0.0
2016-Jan-13 02:31N 53°33' E 008°34'0 0.0
2016-Jan-13 01:31N 53°33' E 008°34'0 0.0
2016-Jan-13 00:31N 53°33' E 008°34'0 0.0
2016-Jan-12 23:28N 53°33' E 008°34'0 0.0
2016-Jan-12 22:31N 53°33' E 008°34'0 0.0
2016-Jan-12 21:31N 53°33' E 008°34'0 0.0
2016-Jan-12 20:31N 53°33' E 008°34'0 0.0
2016-Jan-12 19:31N 53°33' E 008°34'0 0.0
2016-Jan-12 18:31N 53°33' E 008°34'0 0.0
2016-Jan-12 17:31N 53°33' E 008°34'0 0.0
2016-Jan-12 16:31N 53°33' E 008°34'0 0.0
2016-Jan-12 15:31N 53°33' E 008°34'0 0.0
2016-Jan-12 14:31N 53°33' E 008°34'0 0.0
2016-Jan-12 13:31N 53°33' E 008°34'0 0.0
2016-Jan-12 12:31N 53°33' E 008°34'0 0.0
2016-Jan-12 11:31N 53°33' E 008°34'0 0.0
2016-Jan-12 10:18N 53°33' E 008°34'0 0.0
2016-Jan-12 09:31N 53°33' E 008°34'0 0.0
2016-Jan-12 08:31N 53°33' E 008°34'0 0.0
2016-Jan-12 07:31N 53°33' E 008°34'0 0.0
2016-Jan-12 06:28N 53°33' E 008°34'0 0.0
2016-Jan-12 05:31N 53°33' E 008°34'0 0.0
2016-Jan-12 04:31N 53°33' E 008°34'0 0.0
2016-Jan-12 03:31N 53°33' E 008°34'0 0.0
2016-Jan-12 02:31N 53°33' E 008°34'0 0.0
2016-Jan-12 01:31N 53°33' E 008°34'0 0.0
2016-Jan-12 00:31N 53°33' E 008°34'0 0.0
2016-Jan-11 23:31N 53°33' E 008°34'0 0.0
2016-Jan-11 22:31N 53°33' E 008°34'0 0.0
2016-Jan-11 21:31N 53°33' E 008°34'0 0.0
2016-Jan-11 20:28N 53°33' E 008°34'0 0.0
2016-Jan-11 19:28N 53°33' E 008°34'0 0.0
2016-Jan-11 18:31N 53°33' E 008°34'0 0.0
2016-Jan-11 17:31N 53°33' E 008°34'0 0.0
2016-Jan-11 16:31N 53°33' E 008°34'0 0.0
2016-Jan-11 15:31N 53°33' E 008°34'0 0.0
2016-Jan-11 14:31N 53°33' E 008°34'0 0.0
2016-Jan-11 13:31N 53°33' E 008°34'0 0.0
2016-Jan-11 12:31N 53°33' E 008°34'0 0.0
2016-Jan-11 11:31N 53°33' E 008°34'0 0.0
2016-Jan-11 10:31N 53°33' E 008°34'0 0.0
2016-Jan-11 09:31N 53°33' E 008°34'0 0.0
2016-Jan-11 08:32N 53°33' E 008°34'0 0.0
2016-Jan-11 07:32N 53°33' E 008°34'0 0.0
2016-Jan-11 06:32N 53°33' E 008°34'0 0.0
2016-Jan-11 05:32N 53°33' E 008°34'0 0.0
2016-Jan-11 04:32N 53°33' E 008°34'0 0.0
2016-Jan-11 03:32N 53°33' E 008°34'0 0.0
2016-Jan-11 02:32N 53°33' E 008°34'0 0.0
2016-Jan-11 01:32N 53°33' E 008°34'0 0.0
2016-Jan-11 00:32N 53°33' E 008°34'0 0.0
2016-Jan-10 23:32N 53°33' E 008°34'0 0.0
2016-Jan-10 22:32N 53°33' E 008°34'0 0.0
2016-Jan-10 21:32N 53°33' E 008°34'0 0.0
2016-Jan-10 20:32N 53°33' E 008°34'0 0.0
2016-Jan-10 19:32N 53°33' E 008°34'0 0.0
2016-Jan-10 18:32N 53°33' E 008°34'0 0.0
2016-Jan-10 17:32N 53°33' E 008°34'0 0.0
2016-Jan-10 16:32N 53°33' E 008°34'0 0.0
2016-Jan-10 15:32N 53°33' E 008°34'0 0.0
2016-Jan-10 14:32N 53°33' E 008°34'0 0.0
2016-Jan-10 13:32N 53°33' E 008°34'0 0.0
2016-Jan-10 12:32N 53°33' E 008°34'0 0.0
2016-Jan-10 11:32N 53°33' E 008°34'0 0.0
2016-Jan-10 10:32N 53°33' E 008°34'0 0.0
2016-Jan-10 09:32N 53°33' E 008°34'0 0.0
2016-Jan-10 08:32N 53°33' E 008°34'0 0.0
2016-Jan-10 07:32N 53°33' E 008°34'0 0.0
2016-Jan-10 06:32N 53°33' E 008°34'0 0.0
2016-Jan-10 05:32N 53°33' E 008°34'0 0.0
2016-Jan-10 04:32N 53°33' E 008°34'  

Dump ship's entire track history